Harper, IA (52231)

8:45 PM CDT on April 30, 2017 (GMT -0500)
Keotaburbs | | Change Station

Elev 797 ft 41.34 °N, 91.94 °W | Updated 0 second ago

Rain
Rain
49.5 °F
Feels Like 46 °F
N
9.2
Wind Variable Wind from North
Gusts 9.8 mph

Today
High -- | Low -- °F
--% Chance of Precip.
Yesterday
High -- | Low -- °F
Precip. -- in
Pressure 29.49 in
Visibility 4.0 miles
Clouds Scattered Clouds 3200 ft
Mostly Cloudy 4600 ft
Overcast 7500 ft
Windchill 46 °F
Dew Point 49 °F
Humidity 99%
Rainfall 0.83 in
Snow Depth Not available.
6:06 AM 8:04 PM
Waxing Crescent, 28% visible
METAR KAWG 010135Z AUTO 03008KT 4SM -RA SCT032 BKN046 OVC075 10/10 A2949 RMK AO2
Pressure 29.49 in
Visibility 4.0 miles
Clouds Scattered Clouds 3200 ft
Mostly Cloudy 4600 ft
Overcast 7500 ft
Windchill 46 °F
Dew Point 49 °F
Humidity 99%
Rainfall 0.83 in
Snow Depth Not available.
6:06 AM 8:04 PM
Waxing Crescent, 28% visible
METAR KAWG 010135Z AUTO 03008KT 4SM -RA SCT032 BKN046 OVC075 10/10 A2949 RMK AO2

Get Severe Weather Alerts

Thanks for signing up!

Be on the lookout for a verification email in your inbox.

You'll start receiving the daily forecast at 8 AM.

×

10-Day Weather Forecast

Almanac

Astronomy

Apr. 30, 2017 Rise Set
Actual Time
Civil Twilight
Nautical Twilight
Astronomical Twilight
Moon
Length of Visible Light
Length of Day
Tomorrow will be .
, % of the Moon is Illuminated

Today's Extremes

State Highs State Lows

Community

WunderPhotos

WunderBlog® & News

Nearby

Air Quality

  Air Quality AQ Index Pollutant
Not available.

Snow Depth

Station Depth Elevation

Earthquake Activity

City Distance Mag. Time & Date
Minimum magnitude displayed is 2.5.

Coastal Water Temperatures

Place Temperature

Stations

Nearby Weather Stations

Station Location Temp. Windchill Dew Point Humidity Wind Precip. Elev Updated Type
                   

Watches & Warnings

There are currently no watches in effect.